sensor_id;sensor_type;location;lat;lon;timestamp;P1;durP1;ratioP1;P2;durP2;ratioP2
41275;SDS011;27010;47.718;12.912;2024-02-28T00:02:47;21.63;;;13.97;;
41275;SDS011;27010;47.718;12.912;2024-02-28T00:05:49;19.40;;;13.10;;
41275;SDS011;27010;47.718;12.912;2024-02-28T00:08:51;20.30;;;12.73;;
41275;SDS011;27010;47.718;12.912;2024-02-28T00:11:56;18.63;;;12.00;;
41275;SDS011;27010;47.718;12.912;2024-02-28T00:14:58;15.73;;;10.73;;
41275;SDS011;27010;47.718;12.912;2024-02-28T00:18:00;19.20;;;11.77;;
41275;SDS011;27010;47.718;12.912;2024-02-28T00:21:02;15.37;;;10.57;;
41275;SDS011;27010;47.718;12.912;2024-02-28T00:24:06;20.23;;;12.27;;
41275;SDS011;27010;47.718;12.912;2024-02-28T00:27:08;21.77;;;12.73;;
41275;SDS011;27010;47.718;12.912;2024-02-28T00:30:10;19.73;;;12.23;;
41275;SDS011;27010;47.718;12.912;2024-02-28T00:33:12;18.07;;;12.10;;
41275;SDS011;27010;47.718;12.912;2024-02-28T00:36:15;21.07;;;12.53;;
41275;SDS011;27010;47.718;12.912;2024-02-28T00:39:17;21.73;;;13.90;;
41275;SDS011;27010;47.718;12.912;2024-02-28T00:42:19;24.37;;;16.00;;
41275;SDS011;27010;47.718;12.912;2024-02-28T00:45:21;24.63;;;15.00;;
41275;SDS011;27010;47.718;12.912;2024-02-28T00:48:23;22.73;;;13.90;;
41275;SDS011;27010;47.718;12.912;2024-02-28T00:51:25;23.50;;;14.57;;
41275;SDS011;27010;47.718;12.912;2024-02-28T00:54:27;25.43;;;15.53;;
41275;SDS011;27010;47.718;12.912;2024-02-28T00:57:29;27.07;;;16.87;;
41275;SDS011;27010;47.718;12.912;2024-02-28T01:00:32;27.37;;;15.93;;
41275;SDS011;27010;47.718;12.912;2024-02-28T01:03:35;31.00;;;17.37;;
41275;SDS011;27010;47.718;12.912;2024-02-28T01:06:37;26.17;;;15.63;;
41275;SDS011;27010;47.718;12.912;2024-02-28T01:09:40;24.47;;;14.70;;
41275;SDS011;27010;47.718;12.912;2024-02-28T01:12:42;21.03;;;13.03;;
41275;SDS011;27010;47.718;12.912;2024-02-28T01:15:44;19.90;;;12.50;;
41275;SDS011;27010;47.718;12.912;2024-02-28T01:18:46;18.93;;;10.67;;
41275;SDS011;27010;47.718;12.912;2024-02-28T01:21:48;16.43;;;10.07;;
41275;SDS011;27010;47.718;12.912;2024-02-28T01:24:51;14.43;;;10.10;;
41275;SDS011;27010;47.718;12.912;2024-02-28T01:27:53;18.10;;;11.10;;
41275;SDS011;27010;47.718;12.912;2024-02-28T01:30:55;18.50;;;11.17;;
41275;SDS011;27010;47.718;12.912;2024-02-28T01:33:57;16.90;;;10.77;;
41275;SDS011;27010;47.718;12.912;2024-02-28T01:36:59;17.57;;;11.00;;
41275;SDS011;27010;47.718;12.912;2024-02-28T01:40:01;19.97;;;12.40;;
41275;SDS011;27010;47.718;12.912;2024-02-28T01:43:08;25.03;;;15.30;;
41275;SDS011;27010;47.718;12.912;2024-02-28T01:46:20;30.03;;;16.53;;
41275;SDS011;27010;47.718;12.912;2024-02-28T01:49:24;26.40;;;15.90;;
41275;SDS011;27010;47.718;12.912;2024-02-28T01:52:27;27.13;;;14.90;;
41275;SDS011;27010;47.718;12.912;2024-02-28T01:55:29;23.50;;;14.47;;
41275;SDS011;27010;47.718;12.912;2024-02-28T01:58:31;23.63;;;13.90;;
41275;SDS011;27010;47.718;12.912;2024-02-28T02:01:33;23.53;;;14.70;;
41275;SDS011;27010;47.718;12.912;2024-02-28T02:04:36;29.10;;;15.70;;
41275;SDS011;27010;47.718;12.912;2024-02-28T02:07:38;25.60;;;15.30;;
41275;SDS011;27010;47.718;12.912;2024-02-28T02:10:41;28.63;;;15.87;;
41275;SDS011;27010;47.718;12.912;2024-02-28T02:13:50;27.17;;;15.90;;
41275;SDS011;27010;47.718;12.912;2024-02-28T02:16:53;27.23;;;16.40;;
41275;SDS011;27010;47.718;12.912;2024-02-28T02:19:55;24.80;;;14.23;;
41275;SDS011;27010;47.718;12.912;2024-02-28T02:22:57;21.67;;;14.47;;
41275;SDS011;27010;47.718;12.912;2024-02-28T02:25:59;22.17;;;13.60;;
41275;SDS011;27010;47.718;12.912;2024-02-28T02:29:02;22.23;;;14.00;;
41275;SDS011;27010;47.718;12.912;2024-02-28T02:32:04;19.63;;;13.03;;
41275;SDS011;27010;47.718;12.912;2024-02-28T02:35:07;22.40;;;13.10;;
41275;SDS011;27010;47.718;12.912;2024-02-28T02:38:09;23.13;;;12.67;;
41275;SDS011;27010;47.718;12.912;2024-02-28T02:41:11;19.73;;;9.90;;
41275;SDS011;27010;47.718;12.912;2024-02-28T02:44:13;17.27;;;11.33;;
41275;SDS011;27010;47.718;12.912;2024-02-28T02:47:15;24.80;;;14.40;;
41275;SDS011;27010;47.718;12.912;2024-02-28T02:50:17;22.77;;;14.53;;
41275;SDS011;27010;47.718;12.912;2024-02-28T02:53:19;24.43;;;15.23;;
41275;SDS011;27010;47.718;12.912;2024-02-28T02:56:22;27.70;;;16.03;;
41275;SDS011;27010;47.718;12.912;2024-02-28T02:59:25;25.87;;;14.40;;
41275;SDS011;27010;47.718;12.912;2024-02-28T03:02:27;26.10;;;15.30;;
41275;SDS011;27010;47.718;12.912;2024-02-28T03:05:29;24.77;;;14.97;;
41275;SDS011;27010;47.718;12.912;2024-02-28T03:08:31;30.63;;;17.00;;
41275;SDS011;27010;47.718;12.912;2024-02-28T03:11:33;29.23;;;16.80;;
41275;SDS011;27010;47.718;12.912;2024-02-28T03:14:36;26.57;;;16.30;;
41275;SDS011;27010;47.718;12.912;2024-02-28T03:17:39;25.33;;;15.43;;
41275;SDS011;27010;47.718;12.912;2024-02-28T03:20:41;24.80;;;15.17;;
41275;SDS011;27010;47.718;12.912;2024-02-28T03:23:46;26.67;;;14.50;;
41275;SDS011;27010;47.718;12.912;2024-02-28T03:26:48;19.30;;;13.53;;
41275;SDS011;27010;47.718;12.912;2024-02-28T03:29:50;21.23;;;12.90;;
41275;SDS011;27010;47.718;12.912;2024-02-28T03:32:52;25.37;;;15.73;;
41275;SDS011;27010;47.718;12.912;2024-02-28T03:35:54;24.30;;;13.93;;
41275;SDS011;27010;47.718;12.912;2024-02-28T03:38:56;24.13;;;13.60;;
41275;SDS011;27010;47.718;12.912;2024-02-28T03:41:58;17.10;;;11.27;;
41275;SDS011;27010;47.718;12.912;2024-02-28T03:45:01;16.20;;;10.40;;
41275;SDS011;27010;47.718;12.912;2024-02-28T03:48:04;15.30;;;8.60;;
41275;SDS011;27010;47.718;12.912;2024-02-28T03:51:06;14.73;;;9.43;;
41275;SDS011;27010;47.718;12.912;2024-02-28T03:54:08;18.57;;;10.63;;
41275;SDS011;27010;47.718;12.912;2024-02-28T03:57:11;14.80;;;9.67;;
41275;SDS011;27010;47.718;12.912;2024-02-28T04:00:13;16.60;;;10.87;;
41275;SDS011;27010;47.718;12.912;2024-02-28T04:03:16;14.87;;;9.90;;
41275;SDS011;27010;47.718;12.912;2024-02-28T04:06:18;18.50;;;10.97;;
41275;SDS011;27010;47.718;12.912;2024-02-28T04:09:20;17.17;;;10.23;;
41275;SDS011;27010;47.718;12.912;2024-02-28T04:12:22;17.03;;;10.63;;
41275;SDS011;27010;47.718;12.912;2024-02-28T04:15:24;27.37;;;12.30;;
41275;SDS011;27010;47.718;12.912;2024-02-28T04:18:27;20.73;;;12.43;;
41275;SDS011;27010;47.718;12.912;2024-02-28T04:21:30;21.27;;;12.23;;
41275;SDS011;27010;47.718;12.912;2024-02-28T04:24:32;25.63;;;12.90;;
41275;SDS011;27010;47.718;12.912;2024-02-28T04:27:37;24.20;;;14.20;;
41275;SDS011;27010;47.718;12.912;2024-02-28T04:30:39;24.80;;;14.70;;
41275;SDS011;27010;47.718;12.912;2024-02-28T04:33:42;23.60;;;12.00;;
41275;SDS011;27010;47.718;12.912;2024-02-28T04:36:44;23.63;;;14.10;;
41275;SDS011;27010;47.718;12.912;2024-02-28T04:39:46;22.30;;;14.43;;
41275;SDS011;27010;47.718;12.912;2024-02-28T04:42:48;27.47;;;15.33;;
41275;SDS011;27010;47.718;12.912;2024-02-28T04:45:50;27.67;;;16.70;;
41275;SDS011;27010;47.718;12.912;2024-02-28T04:48:52;23.47;;;14.00;;
41275;SDS011;27010;47.718;12.912;2024-02-28T04:51:55;25.07;;;14.53;;
41275;SDS011;27010;47.718;12.912;2024-02-28T04:54:57;25.80;;;14.30;;
41275;SDS011;27010;47.718;12.912;2024-02-28T04:57:59;24.87;;;15.17;;
41275;SDS011;27010;47.718;12.912;2024-02-28T05:01:02;21.27;;;14.13;;
41275;SDS011;27010;47.718;12.912;2024-02-28T05:04:06;22.17;;;13.73;;
41275;SDS011;27010;47.718;12.912;2024-02-28T05:07:09;26.27;;;14.40;;
41275;SDS011;27010;47.718;12.912;2024-02-28T05:10:11;26.30;;;15.27;;
41275;SDS011;27010;47.718;12.912;2024-02-28T05:13:13;30.47;;;16.10;;
41275;SDS011;27010;47.718;12.912;2024-02-28T05:16:16;28.13;;;16.43;;
41275;SDS011;27010;47.718;12.912;2024-02-28T05:19:18;23.63;;;13.53;;
41275;SDS011;27010;47.718;12.912;2024-02-28T05:22:20;27.13;;;16.13;;
41275;SDS011;27010;47.718;12.912;2024-02-28T05:25:22;27.60;;;15.33;;
41275;SDS011;27010;47.718;12.912;2024-02-28T05:28:24;22.90;;;14.50;;
41275;SDS011;27010;47.718;12.912;2024-02-28T05:31:26;31.57;;;16.43;;
41275;SDS011;27010;47.718;12.912;2024-02-28T05:34:30;27.97;;;15.80;;
41275;SDS011;27010;47.718;12.912;2024-02-28T05:37:32;29.47;;;15.63;;
41275;SDS011;27010;47.718;12.912;2024-02-28T05:40:36;30.03;;;15.63;;
41275;SDS011;27010;47.718;12.912;2024-02-28T05:43:38;24.40;;;15.67;;
41275;SDS011;27010;47.718;12.912;2024-02-28T05:46:40;27.33;;;15.50;;
41275;SDS011;27010;47.718;12.912;2024-02-28T05:49:42;23.37;;;14.20;;
41275;SDS011;27010;47.718;12.912;2024-02-28T05:52:44;28.63;;;17.33;;
41275;SDS011;27010;47.718;12.912;2024-02-28T05:55:46;25.00;;;14.60;;
41275;SDS011;27010;47.718;12.912;2024-02-28T05:58:48;34.37;;;15.97;;
41275;SDS011;27010;47.718;12.912;2024-02-28T06:01:51;27.23;;;14.83;;
41275;SDS011;27010;47.718;12.912;2024-02-28T06:04:53;26.57;;;16.00;;
41275;SDS011;27010;47.718;12.912;2024-02-28T06:07:55;27.20;;;16.07;;
41275;SDS011;27010;47.718;12.912;2024-02-28T06:10:56;27.30;;;14.47;;
41275;SDS011;27010;47.718;12.912;2024-02-28T06:13:59;23.93;;;14.73;;
41275;SDS011;27010;47.718;12.912;2024-02-28T06:17:04;25.30;;;14.90;;
41275;SDS011;27010;47.718;12.912;2024-02-28T06:20:06;21.90;;;14.17;;
41275;SDS011;27010;47.718;12.912;2024-02-28T06:23:08;19.33;;;12.83;;
41275;SDS011;27010;47.718;12.912;2024-02-28T06:26:23;19.30;;;12.50;;
41275;SDS011;27010;47.718;12.912;2024-02-28T06:29:25;24.73;;;13.90;;
41275;SDS011;27010;47.718;12.912;2024-02-28T06:32:28;23.57;;;14.33;;
41275;SDS011;27010;47.718;12.912;2024-02-28T06:35:30;21.33;;;13.53;;
41275;SDS011;27010;47.718;12.912;2024-02-28T06:38:32;24.10;;;14.53;;
41275;SDS011;27010;47.718;12.912;2024-02-28T06:41:36;28.50;;;14.33;;
41275;SDS011;27010;47.718;12.912;2024-02-28T06:44:38;23.77;;;14.47;;
41275;SDS011;27010;47.718;12.912;2024-02-28T06:47:40;25.80;;;14.17;;
41275;SDS011;27010;47.718;12.912;2024-02-28T06:50:42;26.43;;;15.57;;
41275;SDS011;27010;47.718;12.912;2024-02-28T06:53:44;28.23;;;14.90;;
41275;SDS011;27010;47.718;12.912;2024-02-28T06:56:47;26.73;;;16.07;;
41275;SDS011;27010;47.718;12.912;2024-02-28T06:59:49;26.10;;;15.27;;
41275;SDS011;27010;47.718;12.912;2024-02-28T07:02:51;21.73;;;14.60;;
41275;SDS011;27010;47.718;12.912;2024-02-28T07:05:54;27.50;;;14.53;;
41275;SDS011;27010;47.718;12.912;2024-02-28T07:08:57;24.90;;;15.20;;
41275;SDS011;27010;47.718;12.912;2024-02-28T07:11:59;25.13;;;15.33;;
41275;SDS011;27010;47.718;12.912;2024-02-28T07:15:02;32.03;;;15.87;;
41275;SDS011;27010;47.718;12.912;2024-02-28T07:18:05;24.83;;;15.60;;
41275;SDS011;27010;47.718;12.912;2024-02-28T07:21:07;25.80;;;14.70;;
41275;SDS011;27010;47.718;12.912;2024-02-28T07:24:10;30.37;;;15.83;;
41275;SDS011;27010;47.718;12.912;2024-02-28T07:27:12;27.67;;;15.20;;
41275;SDS011;27010;47.718;12.912;2024-02-28T07:30:14;23.90;;;14.50;;
41275;SDS011;27010;47.718;12.912;2024-02-28T07:33:17;26.30;;;16.00;;
41275;SDS011;27010;47.718;12.912;2024-02-28T07:36:19;23.10;;;13.77;;
41275;SDS011;27010;47.718;12.912;2024-02-28T07:39:22;26.13;;;15.80;;
41275;SDS011;27010;47.718;12.912;2024-02-28T07:42:26;23.57;;;14.80;;
41275;SDS011;27010;47.718;12.912;2024-02-28T07:45:28;24.63;;;14.10;;
41275;SDS011;27010;47.718;12.912;2024-02-28T07:48:30;21.00;;;14.57;;
41275;SDS011;27010;47.718;12.912;2024-02-28T07:51:32;21.97;;;15.17;;
41275;SDS011;27010;47.718;12.912;2024-02-28T07:54:34;22.07;;;13.23;;
41275;SDS011;27010;47.718;12.912;2024-02-28T07:57:38;23.40;;;14.47;;
41275;SDS011;27010;47.718;12.912;2024-02-28T08:00:40;26.07;;;14.70;;
41275;SDS011;27010;47.718;12.912;2024-02-28T08:03:43;25.77;;;13.93;;
41275;SDS011;27010;47.718;12.912;2024-02-28T08:06:45;23.50;;;13.93;;
41275;SDS011;27010;47.718;12.912;2024-02-28T08:09:47;25.13;;;14.93;;
41275;SDS011;27010;47.718;12.912;2024-02-28T08:12:50;25.40;;;15.10;;
41275;SDS011;27010;47.718;12.912;2024-02-28T08:15:52;23.30;;;14.67;;
41275;SDS011;27010;47.718;12.912;2024-02-28T08:18:55;16.73;;;12.07;;
41275;SDS011;27010;47.718;12.912;2024-02-28T08:21:58;15.57;;;10.80;;
41275;SDS011;27010;47.718;12.912;2024-02-28T08:25:01;21.33;;;11.53;;
41275;SDS011;27010;47.718;12.912;2024-02-28T08:28:03;21.90;;;14.37;;
41275;SDS011;27010;47.718;12.912;2024-02-28T08:31:06;22.67;;;14.40;;
41275;SDS011;27010;47.718;12.912;2024-02-28T08:34:08;19.17;;;12.23;;
41275;SDS011;27010;47.718;12.912;2024-02-28T08:37:11;19.80;;;12.00;;
41275;SDS011;27010;47.718;12.912;2024-02-28T08:40:13;16.03;;;10.63;;
41275;SDS011;27010;47.718;12.912;2024-02-28T08:43:15;15.53;;;9.87;;
41275;SDS011;27010;47.718;12.912;2024-02-28T08:46:18;14.80;;;9.63;;
41275;SDS011;27010;47.718;12.912;2024-02-28T08:49:20;13.83;;;9.77;;
41275;SDS011;27010;47.718;12.912;2024-02-28T08:52:22;14.53;;;9.77;;
41275;SDS011;27010;47.718;12.912;2024-02-28T08:55:24;13.47;;;9.27;;
41275;SDS011;27010;47.718;12.912;2024-02-28T08:58:26;17.73;;;10.63;;
41275;SDS011;27010;47.718;12.912;2024-02-28T09:01:28;15.97;;;10.70;;
41275;SDS011;27010;47.718;12.912;2024-02-28T09:04:30;15.00;;;10.40;;
41275;SDS011;27010;47.718;12.912;2024-02-28T09:07:32;20.10;;;11.47;;
41275;SDS011;27010;47.718;12.912;2024-02-28T09:10:37;16.53;;;11.40;;
41275;SDS011;27010;47.718;12.912;2024-02-28T09:13:39;19.30;;;12.47;;
41275;SDS011;27010;47.718;12.912;2024-02-28T09:16:41;17.83;;;11.93;;
41275;SDS011;27010;47.718;12.912;2024-02-28T09:19:43;20.23;;;12.90;;
41275;SDS011;27010;47.718;12.912;2024-02-28T09:22:45;22.80;;;13.60;;
41275;SDS011;27010;47.718;12.912;2024-02-28T09:25:47;22.30;;;13.50;;
41275;SDS011;27010;47.718;12.912;2024-02-28T09:28:49;19.20;;;12.77;;
41275;SDS011;27010;47.718;12.912;2024-02-28T09:31:52;17.10;;;12.00;;
41275;SDS011;27010;47.718;12.912;2024-02-28T09:34:54;18.23;;;11.57;;
41275;SDS011;27010;47.718;12.912;2024-02-28T09:37:56;17.73;;;12.00;;
41275;SDS011;27010;47.718;12.912;2024-02-28T09:40:58;17.17;;;10.77;;
41275;SDS011;27010;47.718;12.912;2024-02-28T09:44:02;15.33;;;10.73;;
41275;SDS011;27010;47.718;12.912;2024-02-28T09:47:04;13.00;;;9.47;;
41275;SDS011;27010;47.718;12.912;2024-02-28T09:50:06;23.17;;;14.60;;
41275;SDS011;27010;47.718;12.912;2024-02-28T09:53:09;18.97;;;13.03;;
41275;SDS011;27010;47.718;12.912;2024-02-28T09:56:12;17.63;;;12.30;;
41275;SDS011;27010;47.718;12.912;2024-02-28T09:59:15;18.00;;;11.87;;
41275;SDS011;27010;47.718;12.912;2024-02-28T10:02:17;19.50;;;12.30;;
41275;SDS011;27010;47.718;12.912;2024-02-28T10:05:22;18.03;;;12.07;;
41275;SDS011;27010;47.718;12.912;2024-02-28T10:08:28;20.50;;;13.57;;
41275;SDS011;27010;47.718;12.912;2024-02-28T10:11:30;25.50;;;13.27;;
41275;SDS011;27010;47.718;12.912;2024-02-28T10:14:35;18.53;;;12.10;;
41275;SDS011;27010;47.718;12.912;2024-02-28T10:17:37;20.97;;;13.90;;
41275;SDS011;27010;47.718;12.912;2024-02-28T10:20:39;23.90;;;14.33;;
41275;SDS011;27010;47.718;12.912;2024-02-28T10:23:41;22.37;;;14.10;;
41275;SDS011;27010;47.718;12.912;2024-02-28T10:26:45;19.27;;;13.87;;
41275;SDS011;27010;47.718;12.912;2024-02-28T10:29:56;21.33;;;13.87;;
41275;SDS011;27010;47.718;12.912;2024-02-28T10:32:58;23.43;;;14.73;;
41275;SDS011;27010;47.718;12.912;2024-02-28T10:36:00;22.13;;;15.03;;
41275;SDS011;27010;47.718;12.912;2024-02-28T10:39:06;23.30;;;14.53;;
41275;SDS011;27010;47.718;12.912;2024-02-28T10:42:10;25.27;;;14.30;;
41275;SDS011;27010;47.718;12.912;2024-02-28T10:45:13;20.60;;;13.80;;
41275;SDS011;27010;47.718;12.912;2024-02-28T10:48:30;22.83;;;14.43;;
41275;SDS011;27010;47.718;12.912;2024-02-28T10:51:34;23.13;;;14.30;;
41275;SDS011;27010;47.718;12.912;2024-02-28T10:54:40;21.07;;;14.10;;
41275;SDS011;27010;47.718;12.912;2024-02-28T10:57:45;24.70;;;15.07;;
41275;SDS011;27010;47.718;12.912;2024-02-28T11:00:52;19.47;;;13.63;;
41275;SDS011;27010;47.718;12.912;2024-02-28T11:03:54;24.60;;;14.90;;
41275;SDS011;27010;47.718;12.912;2024-02-28T11:06:57;22.13;;;13.67;;
41275;SDS011;27010;47.718;12.912;2024-02-28T11:10:03;20.53;;;14.57;;
41275;SDS011;27010;47.718;12.912;2024-02-28T11:13:07;22.10;;;14.47;;
41275;SDS011;27010;47.718;12.912;2024-02-28T11:16:12;24.30;;;15.50;;
41275;SDS011;27010;47.718;12.912;2024-02-28T11:19:20;22.70;;;14.30;;
41275;SDS011;27010;47.718;12.912;2024-02-28T11:22:28;17.73;;;13.10;;
41275;SDS011;27010;47.718;12.912;2024-02-28T11:25:31;18.90;;;13.30;;
41275;SDS011;27010;47.718;12.912;2024-02-28T11:28:33;20.57;;;13.17;;
41275;SDS011;27010;47.718;12.912;2024-02-28T11:31:36;19.17;;;13.07;;
41275;SDS011;27010;47.718;12.912;2024-02-28T11:34:38;24.57;;;13.20;;
41275;SDS011;27010;47.718;12.912;2024-02-28T11:37:44;21.10;;;13.87;;
41275;SDS011;27010;47.718;12.912;2024-02-28T11:40:48;22.17;;;13.10;;
41275;SDS011;27010;47.718;12.912;2024-02-28T11:43:51;19.63;;;13.57;;
41275;SDS011;27010;47.718;12.912;2024-02-28T11:46:53;19.80;;;12.90;;
41275;SDS011;27010;47.718;12.912;2024-02-28T11:49:59;21.07;;;14.07;;
41275;SDS011;27010;47.718;12.912;2024-02-28T11:53:03;22.63;;;14.27;;
41275;SDS011;27010;47.718;12.912;2024-02-28T11:56:06;23.07;;;15.30;;
41275;SDS011;27010;47.718;12.912;2024-02-28T11:59:13;25.23;;;15.97;;
41275;SDS011;27010;47.718;12.912;2024-02-28T12:02:15;21.03;;;15.43;;
41275;SDS011;27010;47.718;12.912;2024-02-28T12:05:19;23.13;;;14.93;;
41275;SDS011;27010;47.718;12.912;2024-02-28T12:08:21;24.07;;;16.03;;
41275;SDS011;27010;47.718;12.912;2024-02-28T12:11:26;22.20;;;15.17;;
41275;SDS011;27010;47.718;12.912;2024-02-28T12:14:31;20.60;;;14.40;;
41275;SDS011;27010;47.718;12.912;2024-02-28T12:17:35;24.83;;;15.73;;
41275;SDS011;27010;47.718;12.912;2024-02-28T12:20:37;24.37;;;15.07;;
41275;SDS011;27010;47.718;12.912;2024-02-28T12:23:40;24.47;;;14.77;;
41275;SDS011;27010;47.718;12.912;2024-02-28T12:26:42;21.63;;;15.20;;
41275;SDS011;27010;47.718;12.912;2024-02-28T12:29:44;22.73;;;15.10;;
41275;SDS011;27010;47.718;12.912;2024-02-28T12:32:46;23.57;;;15.97;;
41275;SDS011;27010;47.718;12.912;2024-02-28T12:35:48;22.20;;;15.13;;
41275;SDS011;27010;47.718;12.912;2024-02-28T12:38:50;24.33;;;15.90;;
41275;SDS011;27010;47.718;12.912;2024-02-28T12:41:52;26.77;;;17.03;;
41275;SDS011;27010;47.718;12.912;2024-02-28T12:44:55;26.33;;;17.30;;
41275;SDS011;27010;47.718;12.912;2024-02-28T12:47:57;25.23;;;16.43;;
41275;SDS011;27010;47.718;12.912;2024-02-28T12:51:00;24.73;;;16.30;;
41275;SDS011;27010;47.718;12.912;2024-02-28T12:54:02;29.47;;;17.80;;
41275;SDS011;27010;47.718;12.912;2024-02-28T12:57:04;28.33;;;18.50;;
41275;SDS011;27010;47.718;12.912;2024-02-28T13:00:07;33.67;;;20.63;;
41275;SDS011;27010;47.718;12.912;2024-02-28T13:03:10;32.57;;;18.67;;
41275;SDS011;27010;47.718;12.912;2024-02-28T13:06:12;31.30;;;18.97;;
41275;SDS011;27010;47.718;12.912;2024-02-28T13:09:14;31.77;;;19.10;;
41275;SDS011;27010;47.718;12.912;2024-02-28T13:12:16;29.10;;;18.40;;
41275;SDS011;27010;47.718;12.912;2024-02-28T13:15:19;28.27;;;17.53;;
41275;SDS011;27010;47.718;12.912;2024-02-28T13:18:21;25.33;;;16.77;;
41275;SDS011;27010;47.718;12.912;2024-02-28T13:21:23;29.00;;;18.63;;
41275;SDS011;27010;47.718;12.912;2024-02-28T13:24:26;27.87;;;17.10;;
41275;SDS011;27010;47.718;12.912;2024-02-28T13:27:28;27.57;;;19.23;;
41275;SDS011;27010;47.718;12.912;2024-02-28T13:30:30;29.00;;;18.30;;
41275;SDS011;27010;47.718;12.912;2024-02-28T13:33:32;30.57;;;20.00;;
41275;SDS011;27010;47.718;12.912;2024-02-28T13:36:35;30.60;;;18.43;;
41275;SDS011;27010;47.718;12.912;2024-02-28T13:39:38;28.80;;;17.90;;
41275;SDS011;27010;47.718;12.912;2024-02-28T13:42:41;28.77;;;17.20;;
41275;SDS011;27010;47.718;12.912;2024-02-28T13:45:46;27.47;;;18.73;;
41275;SDS011;27010;47.718;12.912;2024-02-28T13:48:49;24.67;;;18.03;;
41275;SDS011;27010;47.718;12.912;2024-02-28T13:51:51;27.40;;;18.03;;
41275;SDS011;27010;47.718;12.912;2024-02-28T13:54:53;29.63;;;19.03;;
41275;SDS011;27010;47.718;12.912;2024-02-28T13:57:56;29.73;;;18.30;;
41275;SDS011;27010;47.718;12.912;2024-02-28T14:00:58;26.77;;;18.63;;
41275;SDS011;27010;47.718;12.912;2024-02-28T14:04:00;27.70;;;19.47;;
41275;SDS011;27010;47.718;12.912;2024-02-28T14:07:02;30.00;;;19.57;;
41275;SDS011;27010;47.718;12.912;2024-02-28T14:10:05;27.60;;;18.73;;
41275;SDS011;27010;47.718;12.912;2024-02-28T14:13:08;39.93;;;23.70;;
41275;SDS011;27010;47.718;12.912;2024-02-28T14:16:13;36.57;;;21.53;;
41275;SDS011;27010;47.718;12.912;2024-02-28T14:19:15;35.03;;;20.97;;
41275;SDS011;27010;47.718;12.912;2024-02-28T14:22:17;34.77;;;21.20;;
41275;SDS011;27010;47.718;12.912;2024-02-28T14:25:19;33.23;;;21.13;;
41275;SDS011;27010;47.718;12.912;2024-02-28T14:28:22;38.57;;;23.03;;
41275;SDS011;27010;47.718;12.912;2024-02-28T14:31:25;36.00;;;21.47;;
41275;SDS011;27010;47.718;12.912;2024-02-28T14:34:28;36.93;;;21.77;;
41275;SDS011;27010;47.718;12.912;2024-02-28T14:37:34;36.07;;;22.13;;
41275;SDS011;27010;47.718;12.912;2024-02-28T14:40:36;34.50;;;21.73;;
41275;SDS011;27010;47.718;12.912;2024-02-28T14:43:38;42.87;;;22.83;;
41275;SDS011;27010;47.718;12.912;2024-02-28T14:46:41;40.17;;;23.57;;
41275;SDS011;27010;47.718;12.912;2024-02-28T14:49:43;39.30;;;22.30;;
41275;SDS011;27010;47.718;12.912;2024-02-28T14:52:45;37.53;;;22.77;;
41275;SDS011;27010;47.718;12.912;2024-02-28T14:55:47;42.43;;;23.77;;
41275;SDS011;27010;47.718;12.912;2024-02-28T14:58:52;43.17;;;25.10;;
41275;SDS011;27010;47.718;12.912;2024-02-28T15:01:54;44.10;;;25.20;;
41275;SDS011;27010;47.718;12.912;2024-02-28T15:04:56;45.70;;;26.10;;
41275;SDS011;27010;47.718;12.912;2024-02-28T15:07:58;46.10;;;24.83;;
41275;SDS011;27010;47.718;12.912;2024-02-28T15:11:00;46.43;;;27.00;;
41275;SDS011;27010;47.718;12.912;2024-02-28T15:14:02;46.63;;;26.27;;
41275;SDS011;27010;47.718;12.912;2024-02-28T15:17:05;47.87;;;27.63;;
41275;SDS011;27010;47.718;12.912;2024-02-28T15:20:07;52.17;;;29.17;;
41275;SDS011;27010;47.718;12.912;2024-02-28T15:23:10;47.43;;;27.50;;
41275;SDS011;27010;47.718;12.912;2024-02-28T15:26:12;50.70;;;26.90;;
41275;SDS011;27010;47.718;12.912;2024-02-28T15:29:15;58.10;;;29.27;;
41275;SDS011;27010;47.718;12.912;2024-02-28T15:32:17;60.47;;;31.60;;
41275;SDS011;27010;47.718;12.912;2024-02-28T15:35:19;55.83;;;29.53;;
41275;SDS011;27010;47.718;12.912;2024-02-28T15:38:24;53.50;;;28.67;;
41275;SDS011;27010;47.718;12.912;2024-02-28T15:41:27;49.60;;;28.80;;
41275;SDS011;27010;47.718;12.912;2024-02-28T15:44:29;49.90;;;27.27;;
41275;SDS011;27010;47.718;12.912;2024-02-28T15:47:31;48.97;;;27.87;;
41275;SDS011;27010;47.718;12.912;2024-02-28T15:50:34;52.10;;;27.83;;
41275;SDS011;27010;47.718;12.912;2024-02-28T15:53:37;53.30;;;27.60;;
41275;SDS011;27010;47.718;12.912;2024-02-28T15:56:39;50.17;;;28.53;;
41275;SDS011;27010;47.718;12.912;2024-02-28T15:59:41;46.50;;;26.40;;
41275;SDS011;27010;47.718;12.912;2024-02-28T16:02:44;53.07;;;26.17;;
41275;SDS011;27010;47.718;12.912;2024-02-28T16:05:46;49.30;;;28.37;;
41275;SDS011;27010;47.718;12.912;2024-02-28T16:08:48;53.27;;;27.80;;
41275;SDS011;27010;47.718;12.912;2024-02-28T16:11:50;50.37;;;27.53;;
41275;SDS011;27010;47.718;12.912;2024-02-28T16:14:53;51.93;;;27.80;;
41275;SDS011;27010;47.718;12.912;2024-02-28T16:17:55;59.67;;;29.47;;
41275;SDS011;27010;47.718;12.912;2024-02-28T16:20:57;52.23;;;27.33;;
41275;SDS011;27010;47.718;12.912;2024-02-28T16:23:59;59.07;;;31.07;;
41275;SDS011;27010;47.718;12.912;2024-02-28T16:27:01;52.20;;;28.60;;
41275;SDS011;27010;47.718;12.912;2024-02-28T16:30:04;48.83;;;28.90;;
41275;SDS011;27010;47.718;12.912;2024-02-28T16:33:08;49.63;;;28.57;;
41275;SDS011;27010;47.718;12.912;2024-02-28T16:36:11;58.40;;;33.07;;
41275;SDS011;27010;47.718;12.912;2024-02-28T16:39:14;63.67;;;32.87;;
41275;SDS011;27010;47.718;12.912;2024-02-28T16:42:19;57.03;;;30.33;;
41275;SDS011;27010;47.718;12.912;2024-02-28T16:45:21;56.50;;;31.00;;
41275;SDS011;27010;47.718;12.912;2024-02-28T16:48:23;59.53;;;30.67;;
41275;SDS011;27010;47.718;12.912;2024-02-28T16:51:26;62.40;;;32.27;;
41275;SDS011;27010;47.718;12.912;2024-02-28T16:54:28;57.27;;;32.23;;
41275;SDS011;27010;47.718;12.912;2024-02-28T16:57:30;64.03;;;31.43;;
41275;SDS011;27010;47.718;12.912;2024-02-28T17:00:32;58.00;;;31.23;;
41275;SDS011;27010;47.718;12.912;2024-02-28T17:03:35;64.00;;;31.83;;
41275;SDS011;27010;47.718;12.912;2024-02-28T17:06:37;54.47;;;30.30;;
41275;SDS011;27010;47.718;12.912;2024-02-28T17:09:40;63.17;;;30.53;;
41275;SDS011;27010;47.718;12.912;2024-02-28T17:12:42;65.63;;;31.50;;
41275;SDS011;27010;47.718;12.912;2024-02-28T17:15:44;59.70;;;31.40;;
41275;SDS011;27010;47.718;12.912;2024-02-28T17:18:48;60.67;;;31.70;;
41275;SDS011;27010;47.718;12.912;2024-02-28T17:21:50;61.83;;;31.57;;
41275;SDS011;27010;47.718;12.912;2024-02-28T17:24:52;65.73;;;30.60;;
41275;SDS011;27010;47.718;12.912;2024-02-28T17:27:54;58.53;;;30.73;;
41275;SDS011;27010;47.718;12.912;2024-02-28T17:30:56;61.13;;;32.33;;
41275;SDS011;27010;47.718;12.912;2024-02-28T17:33:58;56.90;;;32.23;;